Time;durP1;ratioP1;P1;durP2;ratioP2;P2;SDS_P1;SDS_P2;PMS_P1;PMS_P2;Temp;Humidity;BMP_temperature;BMP_pressure;BME280_temperature;BME280_humidity;BME280_pressure;Samples;Min_cycle;Max_cycle;Signal;HPM_P1;HPM_P2
2023/11/22 00:00:16;;;;;;;11.23;7.32;;;;;;;5.68;100.00;102623.22;5085081;28;20065;-66
2023/11/22 00:03:04;;;;;;;11.45;6.80;;;;;;;5.43;100.00;102628.13;5113943;28;20054;-66
2023/11/22 00:05:52;;;;;;;11.40;7.38;;;;;;;5.30;100.00;102627.97;5106901;27;20042;-67
2023/11/22 00:08:40;;;;;;;10.05;7.22;;;;;;;5.25;100.00;102622.28;5112050;28;20039;-66
2023/11/22 00:11:28;;;;;;;11.27;7.50;;;;;;;5.19;100.00;102612.22;5113069;28;20058;-66
2023/11/22 00:14:16;;;;;;;11.10;7.53;;;;;;;5.19;100.00;102618.47;5114082;28;20038;-66
2023/11/22 00:17:04;;;;;;;11.90;7.47;;;;;;;5.22;100.00;102615.41;5127749;27;20039;-65
2023/11/22 00:19:52;;;;;;;12.15;7.60;;;;;;;5.25;100.00;102616.88;5078735;28;20174;-66
2023/11/22 00:22:40;;;;;;;11.27;6.60;;;;;;;5.28;100.00;102605.69;5093199;28;20522;-66
2023/11/22 00:25:28;;;;;;;11.68;7.03;;;;;;;5.28;100.00;102619.22;5077974;28;20044;-66
2023/11/22 00:28:17;;;;;;;10.73;7.32;;;;;;;5.27;100.00;102622.94;5110578;27;20047;-66
2023/11/22 00:31:05;;;;;;;12.02;7.30;;;;;;;5.29;100.00;102623.56;5113377;28;20044;-66
2023/11/22 00:33:53;;;;;;;12.23;7.45;;;;;;;5.38;100.00;102618.91;5114321;27;20427;-66
2023/11/22 00:36:42;;;;;;;11.40;6.97;;;;;;;5.34;100.00;102629.28;5097645;28;20047;-65
2023/11/22 00:39:30;;;;;;;12.25;7.88;;;;;;;5.23;100.00;102638.69;5083726;28;20052;-65
2023/11/22 00:42:21;;;;;;;11.50;7.68;;;;;;;5.12;100.00;102642.72;5097978;28;20438;-66
2023/11/22 00:45:09;;;;;;;8.90;6.45;;;;;;;5.13;100.00;102644.38;5110814;28;20048;-66
2023/11/22 00:47:58;;;;;;;12.80;8.13;;;;;;;5.17;100.00;102647.56;5097798;28;20039;-66
2023/11/22 00:50:46;;;;;;;10.77;8.00;;;;;;;5.17;100.00;102642.16;5112534;28;20423;-67
2023/11/22 00:53:35;;;;;;;10.68;7.05;;;;;;;5.06;100.00;102629.94;5096754;28;20047;-66
2023/11/22 00:56:24;;;;;;;11.45;7.97;;;;;;;5.11;100.00;102637.47;5105377;28;20047;-66
2023/11/22 00:59:12;;;;;;;11.63;7.10;;;;;;;5.02;100.00;102631.31;5096926;28;20066;-66
2023/11/22 01:02:02;;;;;;;10.40;7.40;;;;;;;4.97;100.00;102639.16;5119124;28;20047;-66
2023/11/22 01:04:50;;;;;;;11.07;7.88;;;;;;;4.99;100.00;102647.09;5123439;28;20051;-66
2023/11/22 01:07:38;;;;;;;12.45;7.20;;;;;;;5.05;100.00;102655.28;5097474;28;20192;-66
2023/11/22 01:10:26;;;;;;;11.95;7.70;;;;;;;5.17;100.00;102658.38;5098095;28;20044;-66
2023/11/22 01:13:15;;;;;;;10.90;7.07;;;;;;;5.26;100.00;102661.78;5111845;28;20043;-66
2023/11/22 01:16:03;;;;;;;11.40;8.25;;;;;;;5.21;100.00;102664.22;5109143;28;20396;-66
2023/11/22 01:18:52;;;;;;;12.13;7.63;;;;;;;5.24;100.00;102664.69;5069260;28;20444;-66
2023/11/22 01:21:40;;;;;;;12.05;7.90;;;;;;;5.28;100.00;102673.25;5086369;28;20066;-66
2023/11/22 01:24:29;;;;;;;13.88;8.75;;;;;;;5.18;100.00;102675.41;5112862;28;20079;-66
2023/11/22 01:27:17;;;;;;;14.18;8.25;;;;;;;5.11;100.00;102686.94;5129668;28;20040;-65
2023/11/22 01:30:07;;;;;;;11.00;7.35;;;;;;;4.96;100.00;102701.47;5114711;28;20051;-66
2023/11/22 01:32:55;;;;;;;11.32;7.72;;;;;;;4.97;100.00;102700.44;5084868;28;20075;-63
2023/11/22 01:35:43;;;;;;;12.23;7.60;;;;;;;4.95;100.00;102700.63;5108668;28;20120;-67
2023/11/22 01:38:31;;;;;;;11.23;8.00;;;;;;;4.99;100.00;102715.44;5125194;28;20087;-66
2023/11/22 01:41:19;;;;;;;10.88;7.28;;;;;;;5.02;100.00;102715.06;5128178;28;20044;-63
2023/11/22 01:44:08;;;;;;;10.60;7.20;;;;;;;5.15;100.00;102713.59;5131653;28;20050;-62
2023/11/22 01:46:56;;;;;;;10.98;7.90;;;;;;;5.22;100.00;102720.78;5120341;28;20044;-67
2023/11/22 01:49:44;;;;;;;10.13;7.28;;;;;;;5.20;100.00;102727.41;5076277;28;20055;-66
2023/11/22 01:52:32;;;;;;;12.25;8.18;;;;;;;5.15;100.00;102737.91;5101681;28;20124;-66
2023/11/22 01:55:20;;;;;;;12.43;8.20;;;;;;;5.16;100.00;102736.91;5110501;27;20119;-66
2023/11/22 01:58:08;;;;;;;13.82;8.93;;;;;;;5.08;100.00;102740.53;5101326;28;20071;-66
2023/11/22 02:00:58;;;;;;;12.60;8.43;;;;;;;5.06;100.00;102731.78;5087275;28;20416;-67
2023/11/22 02:03:49;;;;;;;12.63;7.90;;;;;;;5.02;100.00;102731.28;5074312;28;20132;-68
2023/11/22 02:06:37;;;;;;;10.45;7.85;;;;;;;5.08;100.00;102724.31;5125950;27;20047;-66
2023/11/22 02:09:25;;;;;;;10.55;7.75;;;;;;;5.16;100.00;102720.69;5100996;28;20046;-66
2023/11/22 02:12:14;;;;;;;11.30;7.60;;;;;;;5.22;100.00;102718.09;5071652;28;20043;-66
2023/11/22 02:15:03;;;;;;;11.85;8.10;;;;;;;5.21;100.00;102718.28;5128833;27;20050;-66
2023/11/22 02:17:51;;;;;;;13.95;8.32;;;;;;;5.17;100.00;102715.13;5084030;28;20047;-66
2023/11/22 02:20:49;;;;;;;12.70;8.77;;;;;;;5.01;100.00;102715.28;5101755;28;20047;-66
2023/11/22 02:23:37;;;;;;;11.93;8.20;;;;;;;4.86;100.00;102726.06;5072157;28;20111;-66
2023/11/22 02:26:25;;;;;;;11.75;8.02;;;;;;;4.77;100.00;102719.03;5098402;27;20043;-67
2023/11/22 02:29:14;;;;;;;12.35;8.93;;;;;;;4.79;100.00;102725.09;5098416;28;20043;-66
2023/11/22 02:32:04;;;;;;;10.68;7.80;;;;;;;4.84;100.00;102730.81;5086696;28;20035;-66
2023/11/22 02:34:52;;;;;;;10.93;7.55;;;;;;;4.90;100.00;102728.19;5100881;28;20122;-66
2023/11/22 02:37:43;;;;;;;12.15;8.43;;;;;;;4.96;100.00;102731.19;5106480;27;20185;-66
2023/11/22 02:40:31;;;;;;;14.10;8.50;;;;;;;5.05;100.00;102732.78;5115999;28;20407;-68
2023/11/22 02:43:19;;;;;;;12.18;7.85;;;;;;;5.15;100.00;102735.22;5120600;28;20388;-66
2023/11/22 02:46:11;;;;;;;11.55;8.15;;;;;;;5.23;100.00;102721.63;5104594;28;20043;-66
2023/11/22 02:48:59;;;;;;;12.07;7.93;;;;;;;5.30;100.00;102725.28;5118293;28;20043;-66
2023/11/22 02:51:47;;;;;;;13.05;8.02;;;;;;;5.32;100.00;102720.53;5094297;28;20130;-66
2023/11/22 02:54:35;;;;;;;11.57;8.05;;;;;;;5.34;100.00;102723.88;5117554;28;20089;-66
2023/11/22 02:57:24;;;;;;;11.95;8.50;;;;;;;5.29;100.00;102716.31;5096200;28;20044;-66
2023/11/22 03:00:15;;;;;;;11.95;8.45;;;;;;;5.19;100.00;102720.31;5099873;28;20569;-66
2023/11/22 03:03:04;;;;;;;10.98;8.00;;;;;;;5.08;100.00;102725.16;5101500;28;20052;-66
2023/11/22 03:05:53;;;;;;;11.00;8.25;;;;;;;4.99;100.00;102726.25;5099241;28;20062;-65
2023/11/22 03:08:42;;;;;;;11.13;8.50;;;;;;;4.89;100.00;102720.28;5099578;27;20051;-66
2023/11/22 03:11:31;;;;;;;11.88;8.77;;;;;;;4.79;100.00;102717.84;5077903;28;20051;-66
2023/11/22 03:14:19;;;;;;;12.50;8.10;;;;;;;4.79;100.00;102719.72;5107017;28;20070;-67
2023/11/22 03:17:08;;;;;;;10.45;7.93;;;;;;;4.89;100.00;102722.97;5112201;28;20043;-66
2023/11/22 03:20:00;;;;;;;11.60;8.50;;;;;;;4.96;100.00;102726.63;5098703;28;20040;-67
2023/11/22 03:22:50;;;;;;;9.77;7.60;;;;;;;4.96;100.00;102728.50;5084680;28;20043;-65
2023/11/22 03:25:38;;;;;;;10.55;8.02;;;;;;;4.98;100.00;102723.72;5116926;27;20047;-65
2023/11/22 03:28:31;;;;;;;11.82;8.00;;;;;;;5.00;100.00;102721.69;5113829;28;20124;-66
2023/11/22 03:31:19;;;;;;;10.73;7.65;;;;;;;5.03;100.00;102732.97;5100197;28;20051;-67
2023/11/22 03:34:07;;;;;;;11.77;8.55;;;;;;;5.04;100.00;102734.63;5099005;28;20051;-66
2023/11/22 03:36:56;;;;;;;12.68;8.20;;;;;;;5.03;100.00;102738.38;5078400;28;20047;-66
2023/11/22 03:39:48;;;;;;;10.40;7.55;;;;;;;4.97;100.00;102747.22;5098935;28;20552;-66
2023/11/22 03:42:37;;;;;;;11.77;8.27;;;;;;;4.98;100.00;102757.00;5113644;28;20473;-66
2023/11/22 03:45:26;;;;;;;12.80;8.60;;;;;;;4.98;100.00;102762.41;5092924;28;20445;-66
2023/11/22 03:48:13;;;;;;;11.57;8.43;;;;;;;5.03;100.00;102770.81;5114177;28;20047;-67
2023/11/22 03:51:02;;;;;;;14.13;8.05;;;;;;;5.06;100.00;102785.81;5113143;28;20134;-66
2023/11/22 03:53:50;;;;;;;13.88;8.50;;;;;;;5.03;100.00;102792.41;5113685;28;20503;-67
2023/11/22 03:56:38;;;;;;;12.45;8.35;;;;;;;5.06;100.00;102796.59;5107339;27;20069;-66
2023/11/22 03:59:26;;;;;;;10.43;7.53;;;;;;;5.09;100.00;102798.94;5112391;28;20130;-65
2023/11/22 04:02:14;;;;;;;10.93;7.68;;;;;;;5.11;100.00;102811.25;5113673;28;20055;-66
2023/11/22 04:05:02;;;;;;;12.93;8.48;;;;;;;5.12;100.00;102809.38;5098975;28;20044;-66
2023/11/22 04:07:51;;;;;;;11.25;8.23;;;;;;;5.09;100.00;102824.09;5111459;28;20047;-66
2023/11/22 04:10:39;;;;;;;10.38;7.93;;;;;;;5.09;100.00;102818.69;5111907;28;20043;-66
2023/11/22 04:13:27;;;;;;;10.82;7.68;;;;;;;5.07;100.00;102823.44;5112539;28;20387;-69
2023/11/22 04:16:17;;;;;;;12.30;8.30;;;;;;;5.05;100.00;102828.19;5124522;27;20050;-67
2023/11/22 04:19:05;;;;;;;11.55;7.97;;;;;;;5.06;100.00;102829.88;5130420;27;20043;-67
2023/11/22 04:21:54;;;;;;;12.68;8.05;;;;;;;5.06;100.00;102837.97;5083257;28;20047;-67
2023/11/22 04:24:42;;;;;;;12.05;7.93;;;;;;;5.02;100.00;102833.94;5112809;28;20048;-67
2023/11/22 04:27:31;;;;;;;13.98;8.10;;;;;;;4.95;100.00;102843.78;5116509;27;20176;-67
2023/11/22 04:30:19;;;;;;;10.85;8.07;;;;;;;4.91;100.00;102845.19;5117868;27;20054;-67
2023/11/22 04:33:07;;;;;;;11.82;8.02;;;;;;;4.86;100.00;102845.72;5134360;27;20142;-67
2023/11/22 04:35:55;;;;;;;11.43;7.70;;;;;;;4.85;100.00;102835.94;5096833;28;20495;-67
2023/11/22 04:38:43;;;;;;;11.43;7.78;;;;;;;4.86;100.00;102840.31;5132992;27;20516;-67
2023/11/22 04:41:31;;;;;;;11.23;7.88;;;;;;;4.83;100.00;102850.63;5117620;27;20054;-66
2023/11/22 04:44:19;;;;;;;11.52;8.45;;;;;;;4.74;100.00;102833.66;5129728;27;20514;-67
2023/11/22 04:47:07;;;;;;;11.90;7.63;;;;;;;4.64;100.00;102836.59;5087452;28;20040;-66
2023/11/22 04:49:55;;;;;;;11.13;8.23;;;;;;;4.64;100.00;102825.81;5112566;28;20122;-66
2023/11/22 04:52:43;;;;;;;11.90;8.98;;;;;;;4.66;100.00;102828.31;5097056;28;20188;-67
2023/11/22 04:55:31;;;;;;;12.82;8.63;;;;;;;4.62;100.00;102835.09;5095948;28;20054;-67
2023/11/22 04:58:19;;;;;;;11.60;8.55;;;;;;;4.55;100.00;102851.16;5111996;28;20530;-67
2023/11/22 05:01:10;;;;;;;12.80;8.65;;;;;;;4.42;100.00;102848.19;5083492;28;20109;-67
2023/11/22 05:03:59;;;;;;;13.88;9.18;;;;;;;4.33;100.00;102843.84;5097627;28;20054;-67
2023/11/22 05:06:47;;;;;;;10.35;7.68;;;;;;;4.30;100.00;102846.91;5084454;28;20051;-66
2023/11/22 05:09:35;;;;;;;11.48;8.52;;;;;;;4.29;100.00;102847.94;5113096;28;20181;-67
2023/11/22 05:12:23;;;;;;;12.63;8.40;;;;;;;4.25;100.00;102853.66;5120247;27;20054;-67
2023/11/22 05:15:11;;;;;;;11.90;8.65;;;;;;;4.19;100.00;102849.00;5105931;28;20051;-65
2023/11/22 05:17:59;;;;;;;12.80;8.63;;;;;;;4.22;100.00;102850.50;5117351;28;20601;-68
2023/11/22 05:20:48;;;;;;;12.13;9.18;;;;;;;4.28;100.00;102852.47;5116963;28;20126;-67
2023/11/22 05:23:37;;;;;;;13.52;9.00;;;;;;;4.26;100.00;102849.97;5117024;27;20411;-67
2023/11/22 05:26:26;;;;;;;13.05;8.68;;;;;;;4.24;100.00;102852.00;5082501;28;20436;-68
2023/11/22 05:29:14;;;;;;;13.05;9.15;;;;;;;4.31;100.00;102849.44;5097697;28;20054;-67
2023/11/22 05:32:04;;;;;;;13.73;8.90;;;;;;;4.43;100.00;102844.50;5105305;28;20123;-66
2023/11/22 05:34:54;;;;;;;12.93;9.30;;;;;;;4.51;100.00;102836.34;5088373;28;20044;-67
2023/11/22 05:37:42;;;;;;;12.07;8.65;;;;;;;4.58;100.00;102831.91;5088821;28;20054;-67
2023/11/22 05:40:30;;;;;;;12.30;9.05;;;;;;;4.65;100.00;102834.75;5117223;28;20048;-67
2023/11/22 05:43:22;;;;;;;13.13;9.35;;;;;;;4.66;100.00;102844.50;5102768;27;20061;-67
2023/11/22 05:46:12;;;;;;;12.25;8.70;;;;;;;4.64;100.00;102842.00;5100613;27;20197;-67
2023/11/22 05:49:00;;;;;;;12.77;8.35;;;;;;;4.62;100.00;102857.53;5122382;27;20055;-68
2023/11/22 05:51:48;;;;;;;12.27;8.23;;;;;;;4.65;100.00;102864.44;5125105;27;20138;-66
2023/11/22 05:54:36;;;;;;;11.85;8.73;;;;;;;4.62;100.00;102875.59;5114976;28;20036;-67
2023/11/22 05:57:24;;;;;;;16.75;9.07;;;;;;;4.58;100.00;102883.19;5124773;27;20198;-66
2023/11/22 06:00:14;;;;;;;12.10;8.90;;;;;;;4.57;100.00;102888.75;5101364;28;20039;-63
2023/11/22 06:03:02;;;;;;;12.63;8.88;;;;;;;4.57;100.00;102878.84;5144727;27;20050;-68
2023/11/22 06:05:50;;;;;;;11.75;8.45;;;;;;;4.55;100.00;102875.47;5104924;28;20101;-67
2023/11/22 06:08:38;;;;;;;13.00;8.95;;;;;;;4.48;100.00;102877.19;5089761;28;20046;-67
2023/11/22 06:11:26;;;;;;;12.60;9.27;;;;;;;4.41;100.00;102878.91;5127397;28;20040;-67
2023/11/22 06:14:14;;;;;;;14.38;8.40;;;;;;;4.40;100.00;102899.66;5129739;28;20039;-66
2023/11/22 06:17:03;;;;;;;13.07;9.10;;;;;;;4.35;100.00;102887.69;5104285;28;20044;-68
2023/11/22 06:19:51;;;;;;;13.52;8.93;;;;;;;4.33;100.00;102887.91;5082185;28;20044;-67
2023/11/22 06:22:41;;;;;;;11.75;8.65;;;;;;;4.36;100.00;102897.50;5095320;28;20055;-67
2023/11/22 06:25:29;;;;;;;12.75;8.80;;;;;;;4.40;100.00;102896.09;5104655;27;20043;-67
2023/11/22 06:28:17;;;;;;;14.48;9.30;;;;;;;4.37;100.00;102896.47;5120835;27;20046;-67
2023/11/22 06:31:05;;;;;;;13.85;9.93;;;;;;;4.37;100.00;102894.59;5136120;27;20122;-68
2023/11/22 06:33:53;;;;;;;14.25;9.02;;;;;;;4.40;100.00;102893.41;5103658;28;20093;-67
2023/11/22 06:36:42;;;;;;;10.40;7.70;;;;;;;4.40;100.00;102894.28;4376667;27;10021087;-67
2023/11/22 06:39:30;;;;;;;13.15;9.43;;;;;;;4.41;100.00;102906.72;5111608;28;20292;-67
2023/11/22 06:42:22;;;;;;;14.80;10.45;;;;;;;4.38;100.00;102908.97;5114771;28;20043;-67
2023/11/22 06:45:12;;;;;;;13.38;10.25;;;;;;;4.39;100.00;102929.53;5094509;28;20530;-66
2023/11/22 06:48:00;;;;;;;14.10;9.50;;;;;;;4.38;100.00;102927.84;5075855;28;20051;-67
2023/11/22 06:50:49;;;;;;;17.92;9.85;;;;;;;4.37;100.00;102931.56;5075507;28;20484;-68
2023/11/22 06:53:37;;;;;;;12.50;8.85;;;;;;;4.34;100.00;102929.22;5108010;27;20040;-67
2023/11/22 06:56:25;;;;;;;13.68;9.40;;;;;;;4.41;100.00;102927.50;5091934;28;20048;-68
2023/11/22 06:59:13;;;;;;;12.93;9.50;;;;;;;4.47;100.00;102902.47;5079028;28;20055;-68
2023/11/22 07:02:03;;;;;;;13.82;10.00;;;;;;;4.50;100.00;102899.44;5083811;28;20044;-68
2023/11/22 07:04:51;;;;;;;13.85;10.30;;;;;;;4.57;100.00;102900.44;5097486;28;20093;-66
2023/11/22 07:07:40;;;;;;;16.05;11.07;;;;;;;4.64;100.00;102898.72;5112820;28;20048;-68
2023/11/22 07:10:28;;;;;;;19.27;11.68;;;;;;;4.69;100.00;102893.59;5113604;28;20491;-67
2023/11/22 07:13:16;;;;;;;16.65;11.68;;;;;;;4.69;100.00;102904.41;5067942;28;20073;-68
2023/11/22 07:16:05;;;;;;;18.85;12.55;;;;;;;4.66;100.00;102904.75;5112512;28;20040;-67
2023/11/22 07:18:53;;;;;;;18.65;12.70;;;;;;;4.63;100.00;102902.41;5112676;28;20060;-67
2023/11/22 07:21:41;;;;;;;20.85;13.05;;;;;;;4.59;100.00;102901.06;5111915;28;20040;-68
2023/11/22 07:24:34;;;;;;;19.90;12.93;;;;;;;4.59;100.00;102892.97;5095499;28;20219;-66
2023/11/22 07:27:22;;;;;;;16.88;12.30;;;;;;;4.59;100.00;102903.75;5093946;28;20071;-68
2023/11/22 07:30:12;;;;;;;17.13;12.02;;;;;;;4.54;100.00;102894.53;5110217;28;20419;-67
2023/11/22 07:33:00;;;;;;;17.20;12.40;;;;;;;4.53;100.00;102896.38;5113399;27;20122;-66
2023/11/22 07:35:49;;;;;;;15.90;11.10;;;;;;;4.56;100.00;102893.34;5109450;28;20043;-67
2023/11/22 07:38:39;;;;;;;16.13;10.93;;;;;;;4.60;100.00;102904.63;5089497;27;20051;-68
2023/11/22 07:41:27;;;;;;;19.20;12.05;;;;;;;4.65;100.00;102904.94;5114887;27;20047;-66
2023/11/22 07:44:16;;;;;;;16.50;10.75;;;;;;;4.66;100.00;102904.75;5075161;28;20051;-67
2023/11/22 07:47:10;;;;;;;13.90;10.48;;;;;;;4.64;100.00;102908.63;5092491;28;20043;-67
2023/11/22 07:49:58;;;;;;;13.35;9.80;;;;;;;4.63;100.00;102920.47;5074424;28;20121;-66
2023/11/22 07:52:48;;;;;;;12.65;9.93;;;;;;;4.63;100.00;102926.69;5115505;27;20052;-66
2023/11/22 07:55:37;;;;;;;15.00;9.57;;;;;;;4.62;100.00;102924.19;5113820;28;20047;-67
2023/11/22 07:58:25;;;;;;;12.55;9.20;;;;;;;4.65;100.00;102927.38;5099078;28;20063;-66
2023/11/22 08:01:13;;;;;;;11.65;8.85;;;;;;;4.68;100.00;102940.50;5114307;28;20047;-66
2023/11/22 08:04:02;;;;;;;14.07;10.10;;;;;;;4.70;100.00;102937.66;5098253;28;20111;-66
2023/11/22 08:06:51;;;;;;;13.30;9.73;;;;;;;4.69;100.00;102939.50;5103036;28;20075;-66
2023/11/22 08:09:39;;;;;;;14.05;10.50;;;;;;;4.71;100.00;102944.72;5093202;28;20048;-66
2023/11/22 08:12:28;;;;;;;15.25;10.63;;;;;;;4.69;100.00;102950.31;5107766;27;20576;-67
2023/11/22 08:15:19;;;;;;;12.75;9.90;;;;;;;4.66;100.00;102947.94;5113057;28;20079;-67
2023/11/22 08:18:07;;;;;;;14.57;10.40;;;;;;;4.66;100.00;102949.81;5099357;28;20138;-65
2023/11/22 08:20:56;;;;;;;14.05;10.43;;;;;;;4.67;100.00;102954.22;5084325;28;20051;-65
2023/11/22 08:23:46;;;;;;;13.18;10.45;;;;;;;4.70;100.00;102959.25;5128569;27;20047;-66
2023/11/22 08:26:35;;;;;;;14.65;11.23;;;;;;;4.67;100.00;102973.94;5103627;28;20044;-67
2023/11/22 08:29:23;;;;;;;15.80;11.73;;;;;;;4.65;100.00;102973.28;5113069;28;20044;-67
2023/11/22 08:32:11;;;;;;;18.08;12.38;;;;;;;4.47;100.00;102981.63;5113992;27;20092;-67
2023/11/22 08:34:59;;;;;;;19.25;12.85;;;;;;;4.46;100.00;102974.53;5091195;28;20069;-65
2023/11/22 08:37:47;;;;;;;15.18;12.20;;;;;;;4.44;100.00;102964.91;5101437;27;20666;-66
2023/11/22 08:40:37;;;;;;;15.75;11.43;;;;;;;4.46;100.00;102971.81;5104875;27;20132;-65
2023/11/22 08:43:25;;;;;;;17.80;12.20;;;;;;;4.53;100.00;102979.25;5083479;28;20484;-66
2023/11/22 08:46:14;;;;;;;14.95;12.10;;;;;;;4.56;100.00;102981.59;5112527;28;20185;-65
2023/11/22 08:49:02;;;;;;;16.35;11.77;;;;;;;4.62;100.00;102984.44;5113020;28;20047;-69
2023/11/22 08:51:50;;;;;;;15.52;11.48;;;;;;;4.63;100.00;102991.50;5103330;28;20410;-67
2023/11/22 08:54:38;;;;;;;16.95;12.43;;;;;;;4.64;100.00;102995.91;5096190;28;20046;-67
2023/11/22 08:57:27;;;;;;;17.50;12.32;;;;;;;4.64;100.00;102993.22;4392311;28;10000521;-67
2023/11/22 09:00:15;;;;;;;16.70;12.98;;;;;;;4.65;100.00;102986.78;5074421;28;20429;-67
2023/11/22 09:03:03;;;;;;;14.60;11.68;;;;;;;4.70;100.00;102976.28;5071851;28;20048;-68
2023/11/22 09:05:53;;;;;;;17.05;11.90;;;;;;;4.77;100.00;102991.81;5094477;28;20052;-67
2023/11/22 09:08:41;;;;;;;17.90;12.18;;;;;;;4.80;100.00;102986.88;5093188;28;20461;-68
2023/11/22 09:11:31;;;;;;;21.33;15.75;;;;;;;4.83;100.00;102991.06;5108449;28;20047;-68
2023/11/22 09:14:20;;;;;;;25.70;18.75;;;;;;;4.83;100.00;102982.97;5123231;28;20035;-67
2023/11/22 09:17:09;;;;;;;24.17;18.52;;;;;;;4.84;100.00;102984.69;5112612;28;20048;-66
2023/11/22 09:19:59;;;;;;;23.73;17.23;;;;;;;4.84;100.00;102979.28;5112712;28;20039;-66
2023/11/22 09:22:49;;;;;;;22.55;16.77;;;;;;;4.83;100.00;102986.50;5101270;28;20302;-66
2023/11/22 09:25:38;;;;;;;23.27;16.83;;;;;;;4.84;100.00;103001.72;5103800;28;20553;-66
2023/11/22 09:28:27;;;;;;;21.92;16.27;;;;;;;4.83;100.00;102999.19;5132063;28;20414;-66
2023/11/22 09:31:18;;;;;;;24.23;18.13;;;;;;;4.83;100.00;102985.69;5118459;28;20070;-67
2023/11/22 09:34:06;;;;;;;25.40;19.30;;;;;;;4.86;100.00;102988.06;5102523;28;20047;-66
2023/11/22 09:36:54;;;;;;;25.40;18.98;;;;;;;4.88;100.00;102988.69;5132786;28;20047;-65
2023/11/22 09:39:42;;;;;;;24.77;18.95;;;;;;;4.92;100.00;102992.72;5132486;28;20130;-66
2023/11/22 09:42:31;;;;;;;25.92;19.80;;;;;;;4.91;100.00;102993.75;5132624;28;20050;-65
2023/11/22 09:45:20;;;;;;;25.80;19.73;;;;;;;4.86;100.00;102999.69;5094619;28;20051;-66
2023/11/22 09:48:17;;;;;;;26.35;19.08;;;;;;;4.80;100.00;103011.19;5082897;28;20043;-66
2023/11/22 09:51:20;;;;;;;24.45;18.02;;;;;;;4.84;100.00;103008.97;5098362;28;20051;-66
2023/11/22 09:54:11;;;;;;;24.20;17.45;;;;;;;4.87;100.00;103008.63;5112313;28;20062;-66
2023/11/22 09:57:01;;;;;;;23.23;17.17;;;;;;;4.90;100.00;102994.75;5117916;27;20051;-66
2023/11/22 09:59:52;;;;;;;21.48;15.73;;;;;;;4.91;100.00;102986.50;5096132;28;20047;-68
2023/11/22 10:02:43;;;;;;;22.98;17.23;;;;;;;4.95;100.00;102992.38;5078876;28;20526;-66
2023/11/22 10:05:31;;;;;;;21.58;15.93;;;;;;;5.01;100.00;102988.97;5102494;28;20130;-67
2023/11/22 10:08:22;;;;;;;25.13;19.80;;;;;;;5.01;100.00;102991.66;5116332;28;20051;-67
2023/11/22 10:11:14;;;;;;;27.98;20.67;;;;;;;4.98;100.00;102994.72;5103508;27;20176;-68
2023/11/22 10:14:02;;;;;;;28.52;21.30;;;;;;;4.95;100.00;102994.22;5120254;27;20039;-68
2023/11/22 10:17:05;;;;;;;28.77;20.92;;;;;;;4.91;100.00;102994.59;5136591;27;20123;-68
2023/11/22 10:19:55;;;;;;;24.60;17.55;;;;;;;4.97;100.00;102993.03;5121344;27;20043;-66
2023/11/22 10:22:47;;;;;;;25.98;18.50;;;;;;;4.98;100.00;102989.34;5130959;27;20144;-64
2023/11/22 10:25:37;;;;;;;23.27;16.05;;;;;;;5.05;100.00;102990.31;5087420;28;20039;-67
2023/11/22 10:28:27;;;;;;;27.33;18.17;;;;;;;5.11;100.00;102991.44;5088047;28;20332;-66
2023/11/22 10:31:16;;;;;;;28.88;18.83;;;;;;;5.13;100.00;102976.72;5115791;28;20059;-63
2023/11/22 10:34:04;;;;;;;31.55;21.48;;;;;;;5.15;100.00;102991.91;5114552;28;20028;-62
2023/11/22 10:36:54;;;;;;;34.83;23.65;;;;;;;5.10;100.00;102996.00;5107916;28;20043;-67
2023/11/22 10:39:41;;;;;;;35.75;24.95;;;;;;;5.03;100.00;102986.94;5104858;28;20125;-60
2023/11/22 10:42:30;;;;;;;36.45;24.60;;;;;;;5.00;100.00;102981.88;5135138;27;20044;-60
2023/11/22 10:45:18;;;;;;;35.83;24.48;;;;;;;5.02;100.00;102974.44;5117974;28;20044;-62
2023/11/22 10:48:09;;;;;;;37.72;24.52;;;;;;;5.05;100.00;102984.91;5097371;28;20032;-69
2023/11/22 10:50:58;;;;;;;37.42;24.90;;;;;;;5.09;100.00;102963.75;5114881;28;20048;-66
2023/11/22 10:53:49;;;;;;;29.45;19.33;;;;;;;5.16;100.00;102953.09;5101169;28;20129;-68
2023/11/22 10:56:45;;;;;;;41.53;27.40;;;;;;;5.22;100.00;102944.25;5117082;28;20047;-68
2023/11/22 10:59:33;;;;;;;40.90;27.80;;;;;;;5.19;100.00;102942.75;5102354;28;20071;-70
2023/11/22 11:02:23;;;;;;;40.45;26.27;;;;;;;5.23;100.00;102927.03;5085108;28;20547;-68
2023/11/22 11:05:18;;;;;;;32.55;21.75;;;;;;;5.30;100.00;102918.00;5084580;28;20051;-67
2023/11/22 11:08:14;;;;;;;41.53;26.33;;;;;;;5.33;100.00;102922.19;5114771;28;20047;-68
2023/11/22 11:11:03;;;;;;;;;;;;;;;5.37;100.00;102926.22;5098001;28;20514;-67
2023/11/22 11:13:52;;;;;;;37.60;25.20;;;;;;;5.41;100.00;102929.41;5099615;28;19920;-67
2023/11/22 11:16:41;;;;;;;32.40;22.65;;;;;;;5.45;100.00;102936.13;5098941;28;20384;-68
2023/11/22 11:19:30;;;;;;;35.40;24.02;;;;;;;5.46;100.00;102927.84;5107241;27;20184;-67
2023/11/22 11:22:20;;;;;;;37.70;25.27;;;;;;;5.49;100.00;102923.94;5110157;27;20505;-68
2023/11/22 11:25:10;;;;;;;39.95;26.30;;;;;;;5.50;100.00;102928.31;5115804;27;20043;-68
2023/11/22 11:27:58;;;;;;;40.10;28.58;;;;;;;5.52;100.00;102928.97;4394139;27;10000250;-67
2023/11/22 11:30:48;;;;;;;40.75;28.38;;;;;;;5.54;100.00;102918.81;5114952;27;20054;-68
2023/11/22 11:33:55;;;;;;;37.15;24.92;;;;;;;5.60;100.00;102912.66;5113042;27;20059;-68
2023/11/22 11:36:43;;;;;;;43.80;30.52;;;;;;;5.65;100.00;102914.81;5085080;27;20047;-67
2023/11/22 11:39:32;;;;;;;38.65;26.65;;;;;;;5.67;100.00;102900.09;5113400;27;20055;-67
2023/11/22 11:42:20;;;;;;;38.28;26.00;;;;;;;5.68;100.00;102871.22;5085892;28;20572;-69
2023/11/22 11:45:11;;;;;;;44.75;29.45;;;;;;;5.70;100.00;102871.84;5111083;28;20391;-67
2023/11/22 11:47:59;;;;;;;35.22;22.15;;;;;;;5.76;100.00;102868.41;5073687;28;20047;-67
2023/11/22 11:50:47;;;;;;;38.67;24.70;;;;;;;5.78;100.00;102855.53;5078180;28;20044;-67
2023/11/22 11:53:35;;;;;;;37.30;24.13;;;;;;;5.81;100.00;102840.81;5094563;28;20502;-68
2023/11/22 11:56:26;;;;;;;40.95;28.15;;;;;;;5.79;100.00;102830.16;5111905;27;20048;-68
2023/11/22 11:59:14;;;;;;;41.70;28.60;;;;;;;5.84;100.00;102833.13;5116236;27;20069;-68
2023/11/22 12:02:05;;;;;;;35.63;24.13;;;;;;;5.86;100.00;102833.78;5095187;28;20048;-67
2023/11/22 12:04:53;;;;;;;37.88;27.42;;;;;;;5.78;100.00;102831.19;5073927;28;20055;-68
2023/11/22 12:07:42;;;;;;;36.83;24.10;;;;;;;5.80;100.00;102833.69;5062320;28;20047;-67
2023/11/22 12:10:31;;;;;;;38.70;26.10;;;;;;;5.80;100.00;102836.41;5092197;28;20097;-68
2023/11/22 12:13:22;;;;;;;41.25;28.70;;;;;;;5.79;100.00;102818.50;5109170;28;20189;-69
2023/11/22 12:16:13;;;;;;;37.50;24.27;;;;;;;5.83;100.00;102820.66;5066004;28;20495;-69
2023/11/22 12:19:02;;;;;;;31.42;19.25;;;;;;;5.91;100.00;102817.00;5081462;28;20096;-67
2023/11/22 12:21:51;;;;;;;33.90;23.25;;;;;;;6.02;100.00;102810.31;5108352;28;20047;-68
2023/11/22 12:24:39;;;;;;;37.92;27.35;;;;;;;5.98;100.00;102817.97;5109097;28;20486;-69
2023/11/22 12:27:28;;;;;;;37.88;24.33;;;;;;;5.99;100.00;102827.78;5098672;27;20471;-69
2023/11/22 12:30:50;;;;;;;37.78;26.27;;;;;;;5.95;100.00;102835.41;5097546;27;20242;-68
2023/11/22 12:33:43;;;;;;;33.75;22.17;;;;;;;5.95;100.00;102835.41;5100128;27;20051;-68
2023/11/22 12:36:30;;;;;;;36.40;24.52;;;;;;;5.92;100.00;102830.34;5101663;27;20460;-67
2023/11/22 12:39:20;;;;;;;38.55;27.42;;;;;;;5.90;100.00;102818.88;5113761;27;20055;-70
2023/11/22 12:42:09;;;;;;;42.10;28.60;;;;;;;5.99;100.00;102816.94;5097311;28;20054;-69
2023/11/22 12:44:58;;;;;;;36.08;26.55;;;;;;;6.01;100.00;102816.75;5112536;28;20043;-68
2023/11/22 12:47:47;;;;;;;32.70;22.67;;;;;;;6.02;100.00;102813.84;5097075;28;20074;-68
2023/11/22 12:50:39;;;;;;;44.58;30.50;;;;;;;6.01;100.00;102827.56;5061416;28;20051;-68
2023/11/22 12:53:32;;;;;;;37.65;25.88;;;;;;;6.03;100.00;102829.06;5085674;28;20235;-67